Time,TemperatureF,DewpointF,PressureIn,WindDirection,WindDirectionDegrees,WindSpeedMPH,WindSpeedGustMPH,Humidity,HourlyPrecipIn,Conditions,Clouds,dailyrainin,SolarRadiationWatts/m^2,SoftwareType,DateUTC
2013-04-10 00:00:00,41.0,41.0,-100.00,NE,45,8.0,-999.0,100,-99.99,,,-99.99,0.000000,,2013-04-10 04:00:00,
2013-04-10 00:43:00,41.0,41.0,-100.00,NE,45,8.0,-999.0,100,-99.99,,,-99.99,0.000000,,2013-04-10 04:43:00,
2013-04-10 00:53:00,41.0,41.0,-100.00,NE,45,8.0,-999.0,100,-99.99,,,-99.99,0.000000,,2013-04-10 04:53:00,
2013-04-10 01:00:00,41.0,41.0,-100.00,NE,45,8.0,-999.0,100,-99.99,,,-99.99,0.000000,,2013-04-10 05:00:00,
2013-04-10 01:43:00,41.0,41.0,-100.00,NE,45,8.0,-999.0,100,-99.99,,,-99.99,0.000000,,2013-04-10 05:43:00,
2013-04-10 01:53:00,41.0,41.0,-100.00,NE,45,8.0,-999.0,100,-99.99,,,-99.99,0.000000,,2013-04-10 05:53:00,
2013-04-10 02:00:00,41.0,40.0,-100.00,NE,45,8.0,-999.0,95,0.02,,,-99.99,0.000000,,2013-04-10 06:00:00,
2013-04-10 02:43:00,41.0,40.0,-100.00,NE,45,8.0,-999.0,95,0.02,,,-99.99,0.000000,,2013-04-10 06:43:00,
2013-04-10 02:52:00,41.0,40.0,-100.00,NE,45,8.0,-999.0,95,0.02,,,-99.99,0.000000,,2013-04-10 06:52:00,
2013-04-10 03:00:00,40.0,38.0,-100.00,NE,45,9.0,-999.0,92,-99.99,,,-99.99,0.000000,,2013-04-10 07:00:00,
2013-04-10 03:43:00,40.0,38.0,-100.00,NE,45,9.0,-999.0,92,-99.99,,,-99.99,0.000000,,2013-04-10 07:43:00,
2013-04-10 03:52:00,40.0,38.0,-100.00,NE,45,9.0,-999.0,92,-99.99,,,-99.99,0.000000,,2013-04-10 07:52:00,
2013-04-10 04:00:00,39.0,37.0,-100.00,NE,45,9.0,-999.0,93,-99.99,,,-99.99,0.000000,,2013-04-10 08:00:00,
2013-04-10 04:43:00,39.0,37.0,-100.00,NE,45,9.0,-999.0,93,-99.99,,,-99.99,0.000000,,2013-04-10 08:43:00,
2013-04-10 04:52:00,39.0,37.0,-100.00,NE,45,9.0,-999.0,93,-99.99,,,-99.99,0.000000,,2013-04-10 08:52:00,
2013-04-10 05:00:00,38.0,37.0,-100.00,East,90,8.0,-999.0,95,0.06,,,-99.99,0.000000,,2013-04-10 09:00:00,
2013-04-10 05:43:00,38.0,37.0,-100.00,East,90,8.0,-999.0,95,0.06,,,-99.99,0.000000,,2013-04-10 09:43:00,
2013-04-10 05:53:00,38.0,37.0,-100.00,East,90,8.0,-999.0,95,0.06,,,-99.99,0.000000,,2013-04-10 09:53:00,
2013-04-10 06:00:00,37.0,36.0,-100.00,NE,45,10.0,-999.0,97,0.11,,,-99.99,0.000000,,2013-04-10 10:00:00,
2013-04-10 06:43:00,37.0,36.0,-100.00,NE,45,10.0,-999.0,97,0.11,,,-99.99,0.000000,,2013-04-10 10:43:00,
2013-04-10 06:53:00,37.0,36.0,-100.00,NE,45,10.0,-999.0,97,0.11,,,-99.99,0.000000,,2013-04-10 10:53:00,
2013-04-10 07:42:00,36.0,36.0,-100.00,NE,45,9.0,-999.0,98,0.19,,,-99.99,0.000000,,2013-04-10 11:42:00,
2013-04-10 07:53:00,36.0,36.0,-100.00,NE,45,9.0,-999.0,98,0.19,,,-99.99,0.000000,,2013-04-10 11:53:00,
2013-04-10 08:00:00,36.0,36.0,-100.00,ENE,67,10.0,-999.0,99,0.05,,,-99.99,2.320000,,2013-04-10 12:00:00,
2013-04-10 08:43:00,36.0,36.0,-100.00,ENE,67,10.0,-999.0,99,0.05,,,-99.99,2.320000,,2013-04-10 12:43:00,
2013-04-10 08:52:00,36.0,36.0,-100.00,ENE,67,10.0,-999.0,99,0.05,,,-99.99,2.320000,,2013-04-10 12:52:00,
2013-04-10 09:00:00,36.0,36.0,-100.00,East,90,8.0,-999.0,99,0.19,,,-99.99,6.960000,,2013-04-10 13:00:00,
2013-04-10 09:43:00,36.0,36.0,-100.00,East,90,8.0,-999.0,99,0.19,,,-99.99,6.960000,,2013-04-10 13:43:00,
2013-04-10 09:53:00,36.0,36.0,-100.00,East,90,8.0,-999.0,99,0.19,,,-99.99,6.960000,,2013-04-10 13:53:00,
2013-04-10 10:00:00,37.0,37.0,-100.00,ENE,67,9.0,-999.0,99,0.02,,,-99.99,33.639999,,2013-04-10 14:00:00,
2013-04-10 10:42:00,37.0,37.0,-100.00,ENE,67,9.0,-999.0,99,0.02,,,-99.99,33.639999,,2013-04-10 14:42:00,
2013-04-10 10:52:00,37.0,37.0,-100.00,ENE,67,9.0,-999.0,99,0.02,,,-99.99,33.639999,,2013-04-10 14:52:00,
2013-04-10 12:00:00,38.0,37.0,-100.00,NE,45,14.0,-999.0,99,-99.99,,,-99.99,165.880005,,2013-04-10 16:00:00,
2013-04-10 12:43:00,38.0,37.0,-100.00,NE,45,14.0,-999.0,99,-99.99,,,-99.99,165.880005,,2013-04-10 16:43:00,
2013-04-10 12:53:00,38.0,37.0,-100.00,NE,45,14.0,-999.0,99,-99.99,,,-99.99,165.880005,,2013-04-10 16:53:00,
2013-04-10 13:00:00,39.0,38.0,-100.00,NE,45,8.0,-999.0,96,-99.99,,,-99.99,80.040001,,2013-04-10 17:00:00,
2013-04-10 13:43:00,39.0,38.0,-100.00,NE,45,8.0,-999.0,96,-99.99,,,-99.99,80.040001,,2013-04-10 17:43:00,
2013-04-10 13:53:00,39.0,38.0,-100.00,NE,45,8.0,-999.0,96,-99.99,,,-99.99,80.040001,,2013-04-10 17:53:00,
2013-04-10 14:00:00,40.0,37.0,-100.00,East,90,9.0,-999.0,90,-99.99,,,-99.99,74.239998,,2013-04-10 18:00:00,
2013-04-10 14:43:00,40.0,37.0,-100.00,East,90,9.0,-999.0,90,-99.99,,,-99.99,74.239998,,2013-04-10 18:43:00,
2013-04-10 14:53:00,40.0,37.0,-100.00,East,90,9.0,-999.0,90,-99.99,,,-99.99,74.239998,,2013-04-10 18:53:00,
2013-04-10 15:00:00,41.0,37.0,-100.00,NNE,22,13.0,-999.0,86,-99.99,,,-99.99,174.000000,,2013-04-10 19:00:00,
2013-04-10 15:42:00,41.0,37.0,-100.00,NNE,22,13.0,-999.0,86,-99.99,,,-99.99,174.000000,,2013-04-10 19:42:00,
2013-04-10 15:53:00,41.0,37.0,-100.00,NNE,22,13.0,-999.0,86,-99.99,,,-99.99,174.000000,,2013-04-10 19:53:00,
2013-04-10 16:00:00,41.0,36.0,-100.00,NE,45,13.0,-999.0,82,-99.99,,,-99.99,98.599998,,2013-04-10 20:00:00,
2013-04-10 16:43:00,41.0,36.0,-100.00,NE,45,13.0,-999.0,82,-99.99,,,-99.99,98.599998,,2013-04-10 20:43:00,
2013-04-10 16:53:00,41.0,36.0,-100.00,NE,45,13.0,-999.0,82,-99.99,,,-99.99,98.599998,,2013-04-10 20:53:00,
2013-04-10 17:00:00,42.0,36.0,-100.00,NE,45,11.0,-999.0,79,-99.99,,,-99.99,128.759995,,2013-04-10 21:00:00,
2013-04-10 17:33:00,42.0,36.0,-100.00,NE,45,11.0,-999.0,79,-99.99,,,-99.99,128.759995,,2013-04-10 21:33:00,
2013-04-10 17:43:00,42.0,36.0,-100.00,NE,45,11.0,-999.0,79,-99.99,,,-99.99,128.759995,,2013-04-10 21:43:00,
2013-04-10 17:53:00,42.0,36.0,-100.00,NE,45,11.0,-999.0,79,-99.99,,,-99.99,128.759995,,2013-04-10 21:53:00,
2013-04-10 18:00:00,42.0,36.0,-100.00,NE,45,9.0,-999.0,78,-99.99,,,-99.99,69.599998,,2013-04-10 22:00:00,
2013-04-10 18:34:00,42.0,36.0,-100.00,NE,45,9.0,-999.0,78,-99.99,,,-99.99,69.599998,,2013-04-10 22:34:00,
2013-04-10 18:43:00,42.0,36.0,-100.00,NE,45,9.0,-999.0,78,-99.99,,,-99.99,69.599998,,2013-04-10 22:43:00,
2013-04-10 18:53:00,42.0,36.0,-100.00,NE,45,9.0,-999.0,78,-99.99,,,-99.99,69.599998,,2013-04-10 22:53:00,
2013-04-10 19:00:00,42.0,36.0,-100.00,NNE,22,12.0,-999.0,80,0.01,,,-99.99,75.400002,,2013-04-10 23:00:00,
2013-04-10 19:33:00,42.0,36.0,-100.00,NNE,22,12.0,-999.0,80,0.01,,,-99.99,75.400002,,2013-04-10 23:33:00,
2013-04-10 19:43:00,42.0,36.0,-100.00,NNE,22,12.0,-999.0,80,0.01,,,-99.99,75.400002,,2013-04-10 23:43:00,
2013-04-10 19:53:00,42.0,36.0,-100.00,NNE,22,12.0,-999.0,80,0.01,,,-99.99,75.400002,,2013-04-10 23:53:00,
2013-04-10 20:00:00,41.0,36.0,-100.00,NE,45,9.0,-999.0,83,-99.99,,,-99.99,24.360001,,2013-04-11 00:00:00,
2013-04-10 20:32:00,41.0,36.0,-100.00,NE,45,9.0,-999.0,83,-99.99,,,-99.99,24.360001,,2013-04-11 00:32:00,
2013-04-10 20:43:00,41.0,36.0,-100.00,NE,45,9.0,-999.0,83,-99.99,,,-99.99,24.360001,,2013-04-11 00:43:00,
2013-04-10 20:53:00,41.0,36.0,-100.00,NE,45,9.0,-999.0,83,-99.99,,,-99.99,24.360001,,2013-04-11 00:53:00,
2013-04-10 21:00:00,39.0,34.0,-100.00,NE,45,10.0,-999.0,79,-99.99,,,-99.99,1.160000,,2013-04-11 01:00:00,
2013-04-10 21:33:00,39.0,34.0,-100.00,NE,45,10.0,-999.0,79,-99.99,,,-99.99,1.160000,,2013-04-11 01:33:00,
2013-04-10 21:42:00,39.0,34.0,-100.00,NE,45,10.0,-999.0,79,-99.99,,,-99.99,1.160000,,2013-04-11 01:42:00,
2013-04-10 21:52:00,39.0,34.0,-100.00,NE,45,10.0,-999.0,79,-99.99,,,-99.99,1.160000,,2013-04-11 01:52:00,
2013-04-10 22:00:00,39.0,33.0,-100.00,NE,45,12.0,-999.0,78,-99.99,,,-99.99,0.000000,,2013-04-11 02:00:00,
2013-04-10 22:32:00,39.0,33.0,-100.00,NE,45,12.0,-999.0,78,-99.99,,,-99.99,0.000000,,2013-04-11 02:32:00,
2013-04-10 22:42:00,39.0,33.0,-100.00,NE,45,12.0,-999.0,78,-99.99,,,-99.99,0.000000,,2013-04-11 02:42:00,
2013-04-10 22:53:00,39.0,33.0,-100.00,NE,45,12.0,-999.0,78,-99.99,,,-99.99,0.000000,,2013-04-11 02:53:00,
2013-04-10 23:00:00,38.0,32.0,-100.00,NE,45,10.0,-999.0,79,-99.99,,,-99.99,0.000000,,2013-04-11 03:00:00,
2013-04-10 23:43:00,38.0,32.0,-100.00,NE,45,10.0,-999.0,79,-99.99,,,-99.99,0.000000,,2013-04-11 03:43:00,
2013-04-10 23:54:00,38.0,32.0,-100.00,NE,45,10.0,-999.0,79,-99.99,,,-99.99,0.000000,,2013-04-11 03:54:00,